Time;durP1;ratioP1;P1;durP2;ratioP2;P2;SDS_P1;SDS_P2;PMS_P1;PMS_P2;Temp;Humidity;BMP_temperature;BMP_pressure;BME280_temperature;BME280_humidity;BME280_pressure;Samples;Min_cycle;Max_cycle;Signal;HPM_P1;HPM_P2
2021/08/14 00:01:50;;;;;;;;;4.33;4.33;;;;;;;;5075798;28;51234;-53
2021/08/14 00:04:15;;;;;;;;;6.00;5.00;;;;;;;;5075092;28;52154;-53
2021/08/14 00:06:41;;;;;;;;;6.67;5.67;;;;;;;;5075334;28;51107;-54
2021/08/14 00:09:06;;;;;;;;;4.67;4.00;;;;;;;;5075444;28;51057;-52
2021/08/14 00:11:31;;;;;;;;;5.00;4.67;;;;;;;;5075538;28;51314;-55
2021/08/14 00:13:56;;;;;;;;;3.33;3.33;;;;;;;;5074070;28;51954;-53
2021/08/14 00:16:22;;;;;;;;;5.33;5.33;;;;;;;;5074997;28;50986;-53
2021/08/14 00:18:47;;;;;;;;;8.00;5.67;;;;;;;;5075072;28;50919;-53
2021/08/14 00:21:12;;;;;;;;;7.67;7.00;;;;;;;;5075552;28;51070;-52
2021/08/14 00:23:37;;;;;;;;;7.00;6.00;;;;;;;;5074779;28;51148;-51
2021/08/14 00:26:03;;;;;;;;;6.00;6.00;;;;;;;;5056957;28;51034;-51
2021/08/14 00:28:28;;;;;;;;;6.33;4.67;;;;;;;;5075111;28;51072;-53
2021/08/14 00:30:53;;;;;;;;;5.00;4.00;;;;;;;;5075674;28;50985;-52
2021/08/14 00:33:18;;;;;;;;;5.00;4.00;;;;;;;;5074871;28;52300;-54
2021/08/14 00:35:43;;;;;;;;;5.00;4.67;;;;;;;;5075515;28;51109;-53
2021/08/14 00:38:09;;;;;;;;;5.33;4.67;;;;;;;;5074997;28;50815;-54
2021/08/14 00:40:34;;;;;;;;;6.33;5.00;;;;;;;;5075501;28;50837;-53
2021/08/14 00:43:01;;;;;;;;;6.67;5.33;;;;;;;;5074616;28;51927;-53
2021/08/14 00:45:26;;;;;;;;;6.00;4.33;;;;;;;;5056366;28;51021;-54
2021/08/14 00:47:51;;;;;;;;;5.67;5.67;;;;;;;;5056458;28;50959;-54
2021/08/14 00:50:17;;;;;;;;;6.00;5.67;;;;;;;;5073774;28;51076;-54
2021/08/14 00:52:42;;;;;;;;;4.67;4.33;;;;;;;;5073733;28;52112;-54
2021/08/14 00:55:07;;;;;;;;;6.00;4.33;;;;;;;;5074953;28;50988;-54
2021/08/14 00:57:34;;;;;;;;;5.00;4.00;;;;;;;;5074819;28;51107;-54
2021/08/14 00:59:59;;;;;;;;;5.33;5.33;;;;;;;;5056861;28;51040;-53
2021/08/14 01:02:24;;;;;;;;;4.33;4.00;;;;;;;;5074626;28;50978;-53
2021/08/14 01:04:50;;;;;;;;;5.33;4.33;;;;;;;;5074770;28;50936;-53
2021/08/14 01:07:16;;;;;;;;;4.00;3.33;;;;;;;;5074699;28;50927;-52
2021/08/14 01:09:41;;;;;;;;;5.00;4.00;;;;;;;;5074948;28;50882;-54
2021/08/14 01:12:07;;;;;;;;;3.00;3.00;;;;;;;;5073995;28;52001;-54
2021/08/14 01:14:32;;;;;;;;;4.33;4.33;;;;;;;;5074339;28;50866;-57
2021/08/14 01:16:58;;;;;;;;;11.33;6.67;;;;;;;;5074441;28;50977;-52
2021/08/14 01:19:24;;;;;;;;;6.00;5.00;;;;;;;;5056627;28;51254;-53
2021/08/14 01:21:50;;;;;;;;;7.67;7.00;;;;;;;;5074318;28;51435;-53
2021/08/14 01:24:15;;;;;;;;;4.00;4.00;;;;;;;;5074548;28;51006;-53
2021/08/14 01:26:41;;;;;;;;;4.67;4.33;;;;;;;;5074524;28;51205;-52
2021/08/14 01:29:07;;;;;;;;;6.00;5.33;;;;;;;;5074336;28;51348;-50
2021/08/14 01:31:32;;;;;;;;;4.00;3.00;;;;;;;;5055886;28;53694;-52
2021/08/14 01:33:57;;;;;;;;;4.00;3.33;;;;;;;;5074590;28;51117;-50
2021/08/14 01:36:22;;;;;;;;;4.00;4.00;;;;;;;;5074294;28;51195;-52
2021/08/14 01:38:48;;;;;;;;;4.33;4.33;;;;;;;;5074621;28;51233;-52
2021/08/14 01:41:14;;;;;;;;;5.00;4.67;;;;;;;;5074283;28;51877;-54
2021/08/14 01:43:52;;;;;;;;;5.00;4.00;;;;;;;;5073889;28;51090;-52
2021/08/14 01:46:17;;;;;;;;;4.00;3.00;;;;;;;;5055894;28;51064;-53
2021/08/14 01:48:43;;;;;;;;;3.67;3.00;;;;;;;;5074280;28;50894;-53
2021/08/14 01:51:08;;;;;;;;;6.00;5.00;;;;;;;;5055505;28;52442;-50
2021/08/14 01:53:33;;;;;;;;;3.00;3.00;;;;;;;;5068441;27;51080;-52
2021/08/14 01:55:58;;;;;;;;;4.00;4.00;;;;;;;;5069363;28;51116;-52
2021/08/14 01:58:24;;;;;;;;;4.67;4.00;;;;;;;;5074178;28;51013;-53
2021/08/14 02:00:49;;;;;;;;;4.33;4.33;;;;;;;;5073488;28;52198;-50
2021/08/14 02:03:14;;;;;;;;;4.00;4.00;;;;;;;;5073934;28;51113;-49
2021/08/14 02:05:39;;;;;;;;;5.33;4.33;;;;;;;;5073778;28;51148;-51
2021/08/14 02:08:04;;;;;;;;;4.33;4.00;;;;;;;;5055904;28;51332;-52
2021/08/14 02:10:30;;;;;;;;;5.00;4.33;;;;;;;;5073329;28;52197;-52
2021/08/14 02:12:55;;;;;;;;;5.00;4.67;;;;;;;;5073003;28;51025;-53
2021/08/14 02:15:20;;;;;;;;;7.00;5.00;;;;;;;;5073499;28;51301;-53
2021/08/14 02:17:45;;;;;;;;;5.67;4.67;;;;;;;;5073820;28;50935;-53
2021/08/14 02:20:11;;;;;;;;;3.67;3.67;;;;;;;;5054665;28;52590;-53
2021/08/14 02:22:36;;;;;;;;;5.67;5.33;;;;;;;;5073806;28;51079;-53
2021/08/14 02:25:01;;;;;;;;;5.00;4.00;;;;;;;;5073688;28;51005;-54
2021/08/14 02:27:26;;;;;;;;;5.67;5.00;;;;;;;;5073960;28;50929;-51
2021/08/14 02:29:51;;;;;;;;;4.33;4.00;;;;;;;;5072705;28;51079;-53
2021/08/14 02:32:17;;;;;;;;;7.00;5.00;;;;;;;;5073517;28;51091;-54
2021/08/14 02:34:42;;;;;;;;;4.00;3.67;;;;;;;;5073309;28;51259;-54
2021/08/14 02:37:07;;;;;;;;;5.00;4.00;;;;;;;;5073569;28;51232;-52
2021/08/14 02:39:32;;;;;;;;;5.00;3.67;;;;;;;;5072768;28;51802;-53
2021/08/14 02:41:57;;;;;;;;;5.00;5.00;;;;;;;;5073180;28;50898;-53
2021/08/14 02:44:23;;;;;;;;;5.00;4.00;;;;;;;;5054539;28;51069;-52
2021/08/14 02:46:48;;;;;;;;;5.67;5.33;;;;;;;;5073036;28;51211;-54
2021/08/14 02:49:13;;;;;;;;;5.67;5.00;;;;;;;;5072786;28;52673;-53
2021/08/14 02:51:38;;;;;;;;;4.00;4.00;;;;;;;;5054584;28;50939;-53
2021/08/14 02:54:03;;;;;;;;;3.67;3.67;;;;;;;;5054390;28;51044;-53
2021/08/14 02:56:29;;;;;;;;;5.00;5.00;;;;;;;;5054701;28;51058;-53
2021/08/14 02:58:54;;;;;;;;;6.00;5.00;;;;;;;;5072454;28;50956;-54
2021/08/14 03:01:19;;;;;;;;;5.00;5.00;;;;;;;;5073098;28;50947;-52
2021/08/14 03:03:44;;;;;;;;;5.00;5.00;;;;;;;;5072668;28;51124;-53
2021/08/14 03:06:23;;;;;;;;;5.33;4.00;;;;;;;;5073024;28;51133;-53
2021/08/14 03:08:48;;;;;;;;;5.67;5.33;;;;;;;;5054394;28;51925;-54
2021/08/14 03:11:13;;;;;;;;;5.67;4.67;;;;;;;;5072757;28;51048;-54
2021/08/14 03:13:38;;;;;;;;;4.67;4.00;;;;;;;;5071407;28;51258;-53
2021/08/14 03:16:03;;;;;;;;;3.33;3.33;;;;;;;;5073219;28;51083;-53
2021/08/14 03:18:29;;;;;;;;;5.33;5.00;;;;;;;;5072496;28;52135;-52
2021/08/14 03:20:54;;;;;;;;;4.67;4.00;;;;;;;;5073063;28;51125;-53
2021/08/14 03:23:19;;;;;;;;;5.33;5.33;;;;;;;;5072741;28;51410;-54
2021/08/14 03:25:44;;;;;;;;;6.33;5.33;;;;;;;;5072965;28;51194;-54
2021/08/14 03:28:09;;;;;;;;;5.67;5.33;;;;;;;;5072159;28;52247;-52
2021/08/14 03:30:34;;;;;;;;;6.33;5.33;;;;;;;;5072485;28;50958;-51
2021/08/14 03:33:00;;;;;;;;;6.00;6.00;;;;;;;;5072772;28;50933;-53
2021/08/14 03:35:25;;;;;;;;;7.33;5.33;;;;;;;;5072786;28;51033;-52
2021/08/14 03:37:50;;;;;;;;;6.67;4.33;;;;;;;;5072251;28;51189;-52
2021/08/14 03:40:16;;;;;;;;;4.67;4.67;;;;;;;;5072433;28;51188;-53
2021/08/14 03:42:42;;;;;;;;;4.33;3.00;;;;;;;;5072545;28;50888;-54
2021/08/14 03:45:07;;;;;;;;;5.00;5.00;;;;;;;;5072172;28;51156;-54
2021/08/14 03:47:32;;;;;;;;;4.00;3.00;;;;;;;;5072309;28;51878;-53
2021/08/14 03:49:57;;;;;;;;;4.67;4.67;;;;;;;;5072441;28;51107;-54
2021/08/14 03:52:23;;;;;;;;;3.00;3.00;;;;;;;;5072326;28;51045;-54
2021/08/14 03:54:48;;;;;;;;;6.33;4.00;;;;;;;;5069733;27;51131;-53
2021/08/14 03:57:14;;;;;;;;;7.33;5.67;;;;;;;;5071757;28;51084;-54
2021/08/14 03:59:39;;;;;;;;;6.00;5.00;;;;;;;;5072018;28;51022;-52
2021/08/14 04:02:04;;;;;;;;;8.33;7.33;;;;;;;;5072469;28;51003;-54
2021/08/14 04:04:29;;;;;;;;;6.00;6.00;;;;;;;;5072402;28;51280;-53
2021/08/14 04:06:54;;;;;;;;;3.33;3.00;;;;;;;;5071780;28;51043;-52
2021/08/14 04:09:20;;;;;;;;;6.00;6.00;;;;;;;;5072081;28;50817;-54
2021/08/14 04:11:45;;;;;;;;;5.00;5.00;;;;;;;;5072399;28;50915;-51
2021/08/14 04:14:10;;;;;;;;;6.00;6.00;;;;;;;;5071826;28;51377;-53
2021/08/14 04:16:36;;;;;;;;;6.00;5.00;;;;;;;;5070961;28;50879;-53
2021/08/14 04:19:01;;;;;;;;;6.00;5.00;;;;;;;;5071750;28;51089;-51
2021/08/14 04:21:26;;;;;;;;;7.00;5.67;;;;;;;;5071988;28;50987;-53
2021/08/14 04:23:52;;;;;;;;;6.33;4.33;;;;;;;;5071935;28;51438;-50
2021/08/14 04:26:17;;;;;;;;;5.67;5.00;;;;;;;;5075225;28;51978;-54
2021/08/14 04:28:42;;;;;;;;;4.00;4.00;;;;;;;;5074967;28;51060;-54
2021/08/14 04:31:07;;;;;;;;;9.67;6.67;;;;;;;;5075422;28;50874;-53
2021/08/14 04:33:32;;;;;;;;;5.67;5.67;;;;;;;;5075261;28;50879;-54
2021/08/14 04:35:58;;;;;;;;;6.33;5.67;;;;;;;;5075149;28;52042;-52
2021/08/14 04:38:23;;;;;;;;;9.67;7.33;;;;;;;;5075016;28;50979;-50
2021/08/14 04:40:48;;;;;;;;;5.00;4.00;;;;;;;;5075584;28;50847;-53
2021/08/14 04:43:13;;;;;;;;;6.00;6.00;;;;;;;;5074946;28;51347;-51
2021/08/14 04:45:38;;;;;;;;;5.33;5.33;;;;;;;;5075077;28;50840;-50
2021/08/14 04:48:04;;;;;;;;;6.33;5.33;;;;;;;;5074937;28;50981;-52
2021/08/14 04:50:29;;;;;;;;;8.00;7.67;;;;;;;;5057081;28;50921;-50
2021/08/14 04:52:54;;;;;;;;;6.33;5.67;;;;;;;;5074952;28;51109;-52
2021/08/14 04:55:19;;;;;;;;;7.33;7.33;;;;;;;;5074874;28;53178;-50
2021/08/14 04:57:45;;;;;;;;;8.33;8.33;;;;;;;;5074607;28;50970;-52
2021/08/14 05:00:10;;;;;;;;;6.00;5.00;;;;;;;;5074726;28;51307;-53
2021/08/14 05:02:35;;;;;;;;;7.00;6.67;;;;;;;;5056701;28;51038;-51
2021/08/14 05:05:00;;;;;;;;;6.67;6.33;;;;;;;;5074481;28;51766;-50
2021/08/14 05:07:26;;;;;;;;;8.33;7.33;;;;;;;;5074659;28;51181;-50
2021/08/14 05:09:52;;;;;;;;;7.00;5.00;;;;;;;;5074909;28;51394;-51
2021/08/14 05:12:17;;;;;;;;;7.33;6.67;;;;;;;;5074741;28;51226;-53
2021/08/14 05:14:43;;;;;;;;;5.67;5.67;;;;;;;;5073885;28;51965;-52
2021/08/14 05:17:08;;;;;;;;;4.33;3.67;;;;;;;;5074460;28;51275;-52
2021/08/14 05:19:34;;;;;;;;;9.33;7.00;;;;;;;;5074816;28;50914;-52
2021/08/14 05:21:59;;;;;;;;;5.33;5.33;;;;;;;;5074753;28;50940;-51
2021/08/14 05:24:24;;;;;;;;;6.00;5.67;;;;;;;;5074355;28;51100;-51
2021/08/14 05:26:49;;;;;;;;;9.00;6.33;;;;;;;;5074376;28;51286;-53
2021/08/14 05:29:14;;;;;;;;;5.67;5.67;;;;;;;;5074517;28;50976;-53
2021/08/14 05:31:40;;;;;;;;;5.00;5.00;;;;;;;;5074655;28;51395;-53
2021/08/14 05:34:05;;;;;;;;;5.33;4.67;;;;;;;;5055774;28;52322;-52
2021/08/14 05:36:33;;;;;;;;;8.33;6.33;;;;;;;;5073428;28;51061;-53
2021/08/14 05:38:59;;;;;;;;;5.33;4.67;;;;;;;;5074445;28;50933;-53
2021/08/14 05:41:24;;;;;;;;;6.33;6.00;;;;;;;;5074420;28;51321;-53
2021/08/14 05:43:49;;;;;;;;;7.67;6.00;;;;;;;;5073915;28;52296;-53
2021/08/14 05:46:15;;;;;;;;;6.33;6.00;;;;;;;;5073979;28;51135;-50
2021/08/14 05:48:40;;;;;;;;;6.00;5.67;;;;;;;;5074267;28;51144;-52
2021/08/14 05:51:05;;;;;;;;;7.33;7.00;;;;;;;;5074274;28;51141;-52
2021/08/14 05:53:31;;;;;;;;;6.00;6.00;;;;;;;;5073719;28;51613;-51
2021/08/14 05:55:56;;;;;;;;;6.00;6.00;;;;;;;;5066002;27;51144;-51
2021/08/14 05:58:21;;;;;;;;;6.00;5.00;;;;;;;;5073909;28;51244;-53
2021/08/14 06:00:46;;;;;;;;;8.00;5.67;;;;;;;;5056003;28;51486;-51
2021/08/14 06:03:12;;;;;;;;;5.33;5.33;;;;;;;;5073859;28;52135;-53
2021/08/14 06:05:37;;;;;;;;;5.00;5.00;;;;;;;;5073763;28;51031;-53
2021/08/14 06:08:02;;;;;;;;;6.00;5.00;;;;;;;;5074171;28;50884;-54
2021/08/14 06:10:27;;;;;;;;;6.00;5.67;;;;;;;;5074207;28;50942;-53
2021/08/14 06:12:53;;;;;;;;;8.00;7.00;;;;;;;;5073544;28;52197;-53
2021/08/14 06:15:18;;;;;;;;;6.00;4.00;;;;;;;;5073750;28;51119;-54
2021/08/14 06:17:43;;;;;;;;;5.00;4.33;;;;;;;;5073885;28;51144;-53
2021/08/14 06:20:12;;;;;;;;;7.00;6.00;;;;;;;;5073759;28;51116;-52
2021/08/14 06:22:37;;;;;;;;;5.00;4.33;;;;;;;;5055397;28;52587;-53
2021/08/14 06:25:03;;;;;;;;;4.67;4.00;;;;;;;;5073562;28;51017;-52
2021/08/14 06:27:28;;;;;;;;;5.00;5.00;;;;;;;;5073844;28;51033;-53
2021/08/14 06:29:53;;;;;;;;;5.67;5.00;;;;;;;;5073468;28;50969;-54
2021/08/14 06:32:19;;;;;;;;;5.33;4.67;;;;;;;;5073434;28;52151;-54
2021/08/14 06:34:44;;;;;;;;;4.33;3.00;;;;;;;;5073737;28;50946;-53
2021/08/14 06:37:09;;;;;;;;;6.00;5.00;;;;;;;;5073413;28;51086;-54
2021/08/14 06:39:35;;;;;;;;;4.67;4.67;;;;;;;;5073278;28;50902;-54
2021/08/14 06:42:00;;;;;;;;;2.33;2.33;;;;;;;;5073146;28;50944;-52
2021/08/14 06:44:25;;;;;;;;;4.00;3.33;;;;;;;;5054553;28;51096;-53
2021/08/14 06:46:50;;;;;;;;;5.00;5.00;;;;;;;;5055349;28;51272;-54
2021/08/14 06:49:16;;;;;;;;;6.00;5.00;;;;;;;;5072221;28;51088;-54
2021/08/14 06:51:41;;;;;;;;;5.00;5.00;;;;;;;;5073191;28;51821;-53
2021/08/14 06:54:07;;;;;;;;;7.67;5.00;;;;;;;;5072729;28;50930;-52
2021/08/14 06:56:33;;;;;;;;;3.00;2.67;;;;;;;;5054561;28;51116;-55
2021/08/14 06:58:58;;;;;;;;;5.33;4.33;;;;;;;;5072579;28;51428;-52
2021/08/14 07:01:23;;;;;;;;;6.67;5.67;;;;;;;;5073024;28;52160;-54
2021/08/14 07:03:48;;;;;;;;;5.00;5.00;;;;;;;;5072940;28;50989;-54
2021/08/14 07:06:23;;;;;;;;;4.00;3.67;;;;;;;;5073128;28;50985;-54
2021/08/14 07:08:49;;;;;;;;;4.00;4.00;;;;;;;;5073288;28;51108;-56
2021/08/14 07:11:15;;;;;;;;;5.00;4.67;;;;;;;;5072729;28;51083;-52
2021/08/14 07:13:40;;;;;;;;;4.00;4.00;;;;;;;;5054684;28;50959;-55
2021/08/14 07:16:06;;;;;;;;;3.67;3.67;;;;;;;;5073252;28;50957;-53
2021/08/14 07:18:31;;;;;;;;;3.67;3.67;;;;;;;;5072984;28;51370;-59
2021/08/14 07:20:56;;;;;;;;;4.00;4.00;;;;;;;;5072846;28;51046;-54
2021/08/14 07:23:21;;;;;;;;;3.00;2.00;;;;;;;;5072611;28;50871;-52
2021/08/14 07:25:46;;;;;;;;;5.67;5.67;;;;;;;;5072841;28;51055;-53
2021/08/14 07:28:12;;;;;;;;;7.67;7.00;;;;;;;;5072394;28;50970;-54
2021/08/14 07:30:37;;;;;;;;;3.67;3.67;;;;;;;;5071964;28;51299;-53
2021/08/14 07:33:02;;;;;;;;;5.33;5.33;;;;;;;;5072790;28;50878;-52
2021/08/14 07:35:27;;;;;;;;;6.00;4.33;;;;;;;;5072604;28;50985;-51
2021/08/14 07:37:52;;;;;;;;;5.00;4.00;;;;;;;;5072834;28;50969;-52
2021/08/14 07:40:19;;;;;;;;;3.67;3.33;;;;;;;;5072363;28;51148;-53
2021/08/14 07:42:45;;;;;;;;;4.67;4.33;;;;;;;;5072104;28;51228;-53
2021/08/14 07:45:15;;;;;;;;;5.67;4.67;;;;;;;;5072615;28;50939;-54
2021/08/14 07:47:40;;;;;;;;;3.00;3.00;;;;;;;;5072364;28;51293;-52
2021/08/14 07:50:06;;;;;;;;;5.00;5.00;;;;;;;;5072193;28;52154;-53
2021/08/14 07:52:31;;;;;;;;;5.33;5.33;;;;;;;;5072167;28;51266;-53
2021/08/14 07:54:56;;;;;;;;;4.00;3.67;;;;;;;;5072157;28;51275;-53
2021/08/14 07:57:21;;;;;;;;;5.33;4.33;;;;;;;;5059448;27;51045;-54
2021/08/14 07:59:46;;;;;;;;;3.33;3.00;;;;;;;;5072969;28;51101;-53
2021/08/14 08:02:12;;;;;;;;;2.67;2.67;;;;;;;;5071567;28;51207;-53
2021/08/14 08:04:37;;;;;;;;;2.75;2.75;;;;;;;;5056633;28;51187;-55
2021/08/14 08:07:02;;;;;;;;;3.75;3.75;;;;;;;;5050821;28;50900;-53
2021/08/14 08:09:27;;;;;;;;;3.33;3.33;;;;;;;;5075480;28;53013;-53
2021/08/14 08:11:53;;;;;;;;;4.75;4.00;;;;;;;;5075788;28;51017;-53
2021/08/14 08:14:18;;;;;;;;;4.00;4.00;;;;;;;;5075308;28;51056;-52
2021/08/14 08:16:43;;;;;;;;;3.67;3.67;;;;;;;;5075794;28;51249;-53
2021/08/14 08:19:08;;;;;;;;;4.67;3.67;;;;;;;;5075099;28;51925;-52
2021/08/14 08:21:33;;;;;;;;;5.00;5.00;;;;;;;;5075411;28;50960;-55
2021/08/14 08:23:59;;;;;;;;;3.00;3.00;;;;;;;;5075277;28;51320;-54
2021/08/14 08:26:24;;;;;;;;;3.67;3.67;;;;;;;;5075477;28;51341;-54
2021/08/14 08:28:49;;;;;;;;;4.00;3.25;;;;;;;;5074681;28;51319;-54
2021/08/14 08:31:14;;;;;;;;;2.00;2.00;;;;;;;;5075089;28;50938;-54
2021/08/14 08:33:40;;;;;;;;;3.25;3.25;;;;;;;;5075273;28;51242;-54
2021/08/14 08:36:05;;;;;;;;;4.25;4.25;;;;;;;;5075165;28;51011;-55
2021/08/14 08:38:30;;;;;;;;;4.75;4.75;;;;;;;;5074800;28;51057;-55
2021/08/14 08:40:55;;;;;;;;;5.50;5.50;;;;;;;;5075045;28;51080;-54
2021/08/14 08:43:20;;;;;;;;;4.50;4.50;;;;;;;;5056048;28;50999;-54
2021/08/14 08:45:46;;;;;;;;;4.75;4.50;;;;;;;;5075580;28;51101;-53
2021/08/14 08:48:16;;;;;;;;;5.00;5.00;;;;;;;;5074577;28;51735;-55
2021/08/14 08:50:41;;;;;;;;;5.50;3.75;;;;;;;;5075096;28;50785;-53
2021/08/14 08:53:07;;;;;;;;;4.50;3.50;;;;;;;;5074565;28;51183;-53
2021/08/14 08:55:32;;;;;;;;;5.75;5.25;;;;;;;;5075108;28;50887;-54
2021/08/14 08:57:58;;;;;;;;;5.00;4.50;;;;;;;;5055708;28;51181;-54
2021/08/14 09:00:24;;;;;;;;;4.50;4.50;;;;;;;;5074217;28;50922;-55
2021/08/14 09:03:05;;;;;;;;;3.50;3.50;;;;;;;;5056064;28;51254;-55
2021/08/14 09:05:30;;;;;;;;;2.25;2.25;;;;;;;;5074300;28;51007;-54
2021/08/14 09:08:08;;;;;;;;;5.75;5.25;;;;;;;;5074254;28;52151;-55
2021/08/14 09:10:33;;;;;;;;;5.00;4.50;;;;;;;;5055393;28;51164;-54
2021/08/14 09:13:08;;;;;;;;;4.75;4.75;;;;;;;;5073349;28;51177;-54
2021/08/14 09:15:33;;;;;;;;;3.50;3.50;;;;;;;;5074397;28;50909;-55
2021/08/14 09:18:01;;;;;;;;;4.75;4.75;;;;;;;;5074157;28;51036;-54
2021/08/14 09:20:27;;;;;;;;;3.50;3.25;;;;;;;;5074034;28;51132;-54
2021/08/14 09:23:05;;;;;;;;;4.75;3.75;;;;;;;;5074345;28;51067;-54
2021/08/14 09:25:41;;;;;;;;;3.50;2.50;;;;;;;;5073890;28;51307;-54
2021/08/14 09:28:07;;;;;;;;;3.00;2.75;;;;;;;;5073019;28;51149;-55
2021/08/14 09:30:42;;;;;;;;;5.00;5.00;;;;;;;;5073378;28;50882;-55
2021/08/14 09:33:08;;;;;;;;;3.50;3.50;;;;;;;;5073746;28;51075;-53
2021/08/14 09:35:34;;;;;;;;;4.75;4.75;;;;;;;;5073569;28;51107;-54
2021/08/14 09:38:06;;;;;;;;;4.25;4.25;;;;;;;;5073342;28;52149;-54
2021/08/14 09:40:39;;;;;;;;;5.00;5.00;;;;;;;;5061216;28;51060;-54
2021/08/14 09:43:05;;;;;;;;;5.00;4.00;;;;;;;;5072793;28;51107;-55
2021/08/14 09:45:30;;;;;;;;;5.50;5.50;;;;;;;;5073527;28;50862;-54
2021/08/14 09:47:55;;;;;;;;;5.50;5.50;;;;;;;;5054609;28;50995;-54
2021/08/14 09:50:34;;;;;;;;;3.75;3.75;;;;;;;;5073682;28;51083;-53
2021/08/14 09:53:08;;;;;;;;;3.75;3.75;;;;;;;;5073151;28;51039;-55
2021/08/14 09:55:34;;;;;;;;;3.00;3.00;;;;;;;;5073757;28;51092;-54
2021/08/14 09:57:59;;;;;;;;;4.00;4.00;;;;;;;;5051024;28;51078;-55
2021/08/14 10:00:25;;;;;;;;;3.00;2.75;;;;;;;;5073262;28;50856;-55
2021/08/14 10:02:51;;;;;;;;;6.25;4.75;;;;;;;;5073160;28;51234;-54
2021/08/14 10:05:16;;;;;;;;;2.75;2.75;;;;;;;;5073630;28;51128;-53
2021/08/14 10:07:41;;;;;;;;;4.00;4.00;;;;;;;;5054061;28;52288;-53
2021/08/14 10:10:07;;;;;;;;;4.00;4.00;;;;;;;;5072931;28;50975;-54
2021/08/14 10:12:35;;;;;;;;;3.50;3.50;;;;;;;;5072877;28;51080;-54
2021/08/14 10:15:00;;;;;;;;;4.75;3.75;;;;;;;;5054744;28;51343;-55
2021/08/14 10:17:26;;;;;;;;;4.25;4.25;;;;;;;;5072010;28;51049;-53
2021/08/14 10:19:52;;;;;;;;;5.00;4.25;;;;;;;;5054100;28;50936;-53
2021/08/14 10:22:22;;;;;;;;;6.25;5.75;;;;;;;;5072317;28;51042;-55
2021/08/14 10:24:48;;;;;;;;;4.00;4.00;;;;;;;;5053565;28;51196;-55
2021/08/14 10:27:15;;;;;;;;;4.50;4.25;;;;;;;;5071914;28;52240;-59
2021/08/14 10:30:01;;;;;;;;;4.25;4.25;;;;;;;;5071901;28;51075;-55
2021/08/14 10:32:29;;;;;;;;;5.00;4.25;;;;;;;;5072025;27;51049;-55
2021/08/14 10:35:15;;;;;;;;;5.25;4.75;;;;;;;;5072572;28;51702;-55
2021/08/14 10:37:40;;;;;;;;;5.50;5.50;;;;;;;;5071415;27;52245;-54
2021/08/14 10:40:06;;;;;;;;;4.75;4.75;;;;;;;;5072435;28;50927;-55
2021/08/14 10:42:49;;;;;;;;;5.75;5.50;;;;;;;;5072262;28;50891;-55
2021/08/14 10:45:18;;;;;;;;;6.25;5.75;;;;;;;;5072637;28;50878;-55
2021/08/14 10:47:45;;;;;;;;;14.75;14.25;;;;;;;;5071748;28;51111;-56
2021/08/14 10:50:29;;;;;;;;;5.75;5.75;;;;;;;;5036226;28;51019;-55
2021/08/14 10:53:12;;;;;;;;;5.25;5.25;;;;;;;;5072147;28;51021;-56
2021/08/14 10:55:39;;;;;;;;;6.25;6.25;;;;;;;;5071975;28;51184;-55
2021/08/14 10:58:23;;;;;;;;;6.25;6.00;;;;;;;;5070806;28;52084;-56
2021/08/14 11:00:52;;;;;;;;;6.25;5.25;;;;;;;;5071274;28;51064;-55
2021/08/14 11:03:29;;;;;;;;;4.75;4.75;;;;;;;;5053707;28;50986;-55
2021/08/14 11:05:54;;;;;;;;;7.00;7.00;;;;;;;;5071542;28;50909;-55
2021/08/14 11:08:23;;;;;;;;;6.50;6.00;;;;;;;;5071411;28;51082;-55
2021/08/14 11:10:49;;;;;;;;;5.50;5.00;;;;;;;;5071618;28;51113;-55
2021/08/14 11:13:43;;;;;;;;;8.00;7.00;;;;;;;;5071335;28;51234;-55
2021/08/14 11:16:09;;;;;;;;;6.50;6.50;;;;;;;;5041789;28;51260;-55
2021/08/14 11:18:53;;;;;;;;;7.00;7.00;;;;;;;;5071580;28;52667;-55
2021/08/14 11:21:38;;;;;;;;;6.75;6.75;;;;;;;;5071887;28;51088;-56
2021/08/14 11:24:04;;;;;;;;;6.75;6.75;;;;;;;;5071315;28;51186;-56
2021/08/14 11:26:31;;;;;;;;;7.75;6.75;;;;;;;;5071607;28;51325;-55
2021/08/14 11:28:57;;;;;;;;;6.50;6.50;;;;;;;;5071086;28;51750;-56
2021/08/14 11:31:24;;;;;;;;;8.50;8.50;;;;;;;;5053060;28;51014;-55
2021/08/14 11:33:58;;;;;;;;;5.25;5.25;;;;;;;;5071620;28;51019;-54
2021/08/14 11:36:27;;;;;;;;;6.25;5.25;;;;;;;;5075208;27;51018;-54
2021/08/14 11:39:00;;;;;;;;;5.25;5.25;;;;;;;;5074821;28;52471;-55
2021/08/14 11:41:25;;;;;;;;;6.75;6.25;;;;;;;;5074767;28;51188;-57
2021/08/14 11:43:50;;;;;;;;;5.75;5.75;;;;;;;;5074662;28;51012;-54
2021/08/14 11:46:15;;;;;;;;;5.75;5.75;;;;;;;;5074894;28;51024;-55
2021/08/14 11:48:45;;;;;;;;;6.50;6.50;;;;;;;;5074538;28;52261;-55
2021/08/14 11:51:17;;;;;;;;;11.50;11.50;;;;;;;;5074415;28;51067;-55
2021/08/14 11:53:43;;;;;;;;;11.25;11.00;;;;;;;;5074693;28;50963;-56
2021/08/14 11:56:12;;;;;;;;;9.25;9.00;;;;;;;;5074734;28;51136;-55
2021/08/14 11:58:38;;;;;;;;;9.25;9.25;;;;;;;;5067016;27;52059;-55
2021/08/14 12:01:07;;;;;;;;;8.75;7.75;;;;;;;;5053441;28;51061;-55
2021/08/14 12:03:32;;;;;;;;;6.00;5.75;;;;;;;;5075000;28;51049;-54
2021/08/14 12:06:11;;;;;;;;;8.75;8.75;;;;;;;;5074793;28;51024;-56
2021/08/14 12:08:41;;;;;;;;;7.75;7.25;;;;;;;;5074202;28;50932;-53
2021/08/14 12:11:08;;;;;;;;;7.00;7.00;;;;;;;;5073948;28;51032;-57
2021/08/14 12:13:34;;;;;;;;;10.00;10.00;;;;;;;;5055264;28;51175;-56
2021/08/14 12:16:14;;;;;;;;;7.50;6.00;;;;;;;;5060719;28;51298;-56
2021/08/14 12:18:41;;;;;;;;;8.75;8.75;;;;;;;;5073809;28;51897;-54
2021/08/14 12:21:08;;;;;;;;;7.25;7.25;;;;;;;;5074438;28;51212;-54
2021/08/14 12:23:34;;;;;;;;;6.00;6.00;;;;;;;;5074234;28;51068;-54
2021/08/14 12:26:01;;;;;;;;;8.25;7.00;;;;;;;;5074659;28;50934;-54
2021/08/14 12:28:26;;;;;;;;;8.50;8.50;;;;;;;;5073959;28;51219;-54
2021/08/14 12:30:52;;;;;;;;;8.00;8.00;;;;;;;;5074517;28;50938;-55
2021/08/14 12:33:30;;;;;;;;;7.00;7.00;;;;;;;;5074396;28;51104;-53
2021/08/14 12:35:55;;;;;;;;;7.00;7.00;;;;;;;;5074860;28;51141;-56
2021/08/14 12:38:21;;;;;;;;;9.75;9.25;;;;;;;;5074136;28;51759;-55
2021/08/14 12:40:46;;;;;;;;;9.00;8.00;;;;;;;;5074516;28;51084;-54
2021/08/14 12:43:15;;;;;;;;;11.33;9.67;;;;;;;;5074195;28;51100;-53
2021/08/14 12:45:40;;;;;;;;;7.00;7.00;;;;;;;;5074282;28;51172;-56
2021/08/14 12:48:09;;;;;;;;;8.00;7.33;;;;;;;;5073129;28;51283;-53
2021/08/14 12:50:36;;;;;;;;;6.75;6.75;;;;;;;;5074254;28;50990;-55
2021/08/14 12:53:05;;;;;;;;;9.00;8.33;;;;;;;;5073533;28;51025;-55
2021/08/14 12:55:35;;;;;;;;;8.00;8.00;;;;;;;;5065723;28;50862;-53
2021/08/14 12:58:02;;;;;;;;;9.00;9.00;;;;;;;;5072975;28;51370;-56
2021/08/14 13:00:27;;;;;;;;;8.00;7.33;;;;;;;;5073613;28;51155;-53
2021/08/14 13:02:52;;;;;;;;;8.50;8.50;;;;;;;;5073555;28;51018;-55
2021/08/14 13:05:18;;;;;;;;;7.25;7.25;;;;;;;;5073759;28;51167;-54
2021/08/14 13:07:43;;;;;;;;;7.33;7.00;;;;;;;;5073227;28;51895;-54
2021/08/14 13:10:09;;;;;;;;;10.67;8.33;;;;;;;;5073176;28;50965;-56
2021/08/14 13:12:35;;;;;;;;;12.67;11.33;;;;;;;;5073098;28;51006;-55
2021/08/14 13:15:00;;;;;;;;;8.00;7.67;;;;;;;;5073884;28;51173;-51
2021/08/14 13:17:25;;;;;;;;;8.67;8.67;;;;;;;;5072844;28;52031;-53
2021/08/14 13:19:50;;;;;;;;;7.00;7.00;;;;;;;;5073026;28;51004;-53
2021/08/14 13:22:16;;;;;;;;;7.00;6.67;;;;;;;;5073313;28;51079;-53
2021/08/14 13:24:41;;;;;;;;;9.00;8.00;;;;;;;;5073773;28;51333;-55
2021/08/14 13:27:06;;;;;;;;;9.33;9.33;;;;;;;;5073104;28;52092;-53
2021/08/14 13:29:31;;;;;;;;;7.67;7.67;;;;;;;;5072980;28;51057;-54
2021/08/14 13:31:57;;;;;;;;;7.00;7.00;;;;;;;;5072946;28;51001;-54
2021/08/14 13:34:22;;;;;;;;;10.67;9.67;;;;;;;;5073379;28;50953;-54
2021/08/14 13:36:47;;;;;;;;;10.00;8.33;;;;;;;;5072936;28;51080;-54
2021/08/14 13:39:12;;;;;;;;;8.67;8.67;;;;;;;;5055131;28;51001;-53
2021/08/14 13:41:39;;;;;;;;;9.67;8.67;;;;;;;;5073250;28;50882;-55
2021/08/14 13:44:05;;;;;;;;;8.00;7.67;;;;;;;;5073074;28;50893;-54
2021/08/14 13:46:30;;;;;;;;;9.33;8.67;;;;;;;;5054642;28;52820;-54
2021/08/14 13:48:56;;;;;;;;;10.67;10.00;;;;;;;;5073251;28;51097;-54
2021/08/14 13:51:21;;;;;;;;;7.00;7.00;;;;;;;;5073207;28;51005;-54
2021/08/14 13:53:47;;;;;;;;;10.33;9.67;;;;;;;;5072537;28;51088;-56
2021/08/14 13:56:12;;;;;;;;;8.00;7.67;;;;;;;;5072672;28;51034;-55
2021/08/14 13:58:37;;;;;;;;;8.00;7.33;;;;;;;;5052156;27;51006;-54
2021/08/14 14:01:03;;;;;;;;;7.00;7.00;;;;;;;;5058189;28;50942;-54
2021/08/14 14:03:28;;;;;;;;;10.67;9.33;;;;;;;;5054675;28;51403;-54
2021/08/14 14:05:53;;;;;;;;;8.33;8.33;;;;;;;;5063953;28;52016;-52
2021/08/14 14:08:18;;;;;;;;;11.00;10.67;;;;;;;;5072461;28;50910;-55
2021/08/14 14:10:43;;;;;;;;;9.33;9.33;;;;;;;;5072742;28;51105;-56
2021/08/14 14:13:09;;;;;;;;;8.33;8.33;;;;;;;;5072453;28;50914;-55
2021/08/14 14:15:35;;;;;;;;;13.25;12.75;;;;;;;;5072429;28;52142;-55
2021/08/14 14:18:00;;;;;;;;;9.00;8.67;;;;;;;;5072228;28;51007;-54
2021/08/14 14:20:25;;;;;;;;;7.67;7.67;;;;;;;;5072121;28;51097;-54
2021/08/14 14:22:51;;;;;;;;;8.00;8.00;;;;;;;;5072699;28;51198;-54
2021/08/14 14:25:16;;;;;;;;;13.67;11.00;;;;;;;;5071632;28;51229;-54
2021/08/14 14:27:41;;;;;;;;;8.00;8.00;;;;;;;;5071519;28;50805;-52
2021/08/14 14:30:11;;;;;;;;;9.00;8.67;;;;;;;;5071667;28;51009;-55
2021/08/14 14:32:36;;;;;;;;;8.33;7.00;;;;;;;;5054736;28;51339;-53
2021/08/14 14:35:01;;;;;;;;;9.00;9.00;;;;;;;;5071916;28;51118;-52
2021/08/14 14:37:27;;;;;;;;;7.33;7.33;;;;;;;;5071851;28;51099;-53
2021/08/14 14:39:52;;;;;;;;;8.00;7.67;;;;;;;;5071960;28;50945;-55